Tasman Crusader — A8NQ7 — position and weather

sailwx.info

Track history (hours):
 
Tides and Currents Weather Stations Pressure Air Temp Water Temp Dewpoint Dewpoint Depression Visibility Wind Speed Wind Dir Waves Ship Positions

Tasman Crusader

Last reported at 2014-Oct-09 01:33 UTC. Time now 2014-Oct-23 11:46 UTC.
Position N 29°46' W 117°28'.
Warning: this ship's position is 14 days out of date.

Length 186 m; draft 10.2 m.

Type: Cargo ship. MMSI: 636091434.

Date/timePositionNaut miles runAvg speedWind from/ knotsBaromVisibWave heightAir tempDewpointWater temp
2014-Oct-09 01:33N 29°46' W 117°28'2215.0
2014-Oct-09 00:06N 30°04' W 117°43'1015.4
2014-Oct-08 23:25N 30°12' W 117°51'1615.5
2014-Oct-08 22:23N 30°25' W 118°02'1315.3
2014-Oct-08 21:33N 30°35' W 118°10'1515.1
2014-Oct-08 20:34N 30°47' W 118°21'1515.0
2014-Oct-08 19:33N 30°59' W 118°32'1615.5
2014-Oct-08 18:33N 31°11' W 118°43'1615.4
2014-Oct-08 17:29N 31°24' W 118°54'1415.3
2014-Oct-08 16:33N 31°36' W 119°04'1515.3
2014-Oct-08 15:34N 31°48' W 119°15'1615.6
2014-Oct-08 14:33N 32°01' W 119°25'1515.4
2014-Oct-08 13:34N 32°13' W 119°37'1515.2
2014-Oct-08 12:33N 32°25' W 119°48'1515.3
2014-Oct-08 11:33N 32°37' W 119°59'1515.2
2014-Oct-08 10:33N 32°49' W 120°10'1515.1
2014-Oct-08 09:34N 33°01' W 120°21'1515.2
2014-Oct-08 08:33N 33°13' W 120°32'1515.5
2014-Oct-08 07:33N 33°26' W 120°43'1515.0
2014-Oct-08 06:34N 33°38' W 120°53'1514.8
2014-Oct-08 05:33N 33°50' W 121°03'1515.1
2014-Oct-08 04:33N 34°04' W 121°11'1515.1
2014-Oct-08 03:33N 34°18' W 121°19'1515.3
2014-Oct-08 02:33N 34°31' W 121°27'1514.8
2014-Oct-08 01:34N 34°45' W 121°35'1515.2
2014-Oct-08 00:34N 34°58' W 121°42'1515.1
2014-Oct-07 23:33N 35°12' W 121°50'1515.2
2014-Oct-07 22:33N 35°26' W 121°58'1515.1
2014-Oct-07 21:33N 35°40' W 122°06'1515.2
2014-Oct-07 20:33N 35°53' W 122°14'1515.2
2014-Oct-07 19:33N 36°07' W 122°22'1515.0
2014-Oct-07 18:33N 36°21' W 122°30'1514.7
2014-Oct-07 17:33N 36°34' W 122°38'1515.1
2014-Oct-07 16:33N 36°48' W 122°46'1515.5
2014-Oct-07 15:34N 37°02' W 122°55'1515.1
2014-Oct-07 14:34N 37°15' W 123°02'1110.8
2014-Oct-07 13:33N 37°26' W 123°04'9 9.3
2014-Oct-07 12:33N 37°35' W 123°01'1010.4
2014-Oct-07 11:33N 37°41' W 122°50'10 9.9
2014-Oct-07 10:34N 37°46' W 122°40'1312.9
2014-Oct-07 09:34N 37°50' W 122°24'4 3.9
2014-Oct-07 08:32N 37°49' W 122°19'0 0.0
2014-Oct-07 07:32N 37°49' W 122°19'0 0.0
2014-Oct-07 06:32N 37°49' W 122°19'0 0.0
2014-Oct-07 05:32N 37°49' W 122°19'0 0.0
2014-Oct-07 04:32N 37°49' W 122°19'0 0.0
2014-Oct-07 03:32N 37°49' W 122°19'0 0.0
2014-Oct-07 02:32N 37°49' W 122°19'0 0.0
2014-Oct-07 01:32N 37°49' W 122°19'1 0.8
2014-Oct-07 00:33N 37°49' W 122°20'1110.6
2014-Oct-06 23:34N 37°47' W 122°33'1211.9
2014-Oct-06 22:34N 37°41' W 122°46'1515.0
2014-Oct-06 21:34N 37°32' W 123°02'1515.0
2014-Oct-06 20:34N 37°17' W 123°03'1515.4
2014-Oct-06 19:34N 37°03' W 122°55'1515.4
2014-Oct-06 18:34N 36°50' W 122°47'1615.7
2014-Oct-06 17:34N 36°35' W 122°39'1615.8
2014-Oct-06 16:33N 36°21' W 122°30'1615.8
2014-Oct-06 15:33N 36°07' W 122°22'1616.0
2014-Oct-06 14:34N 35°52' W 122°14'1515.3
2014-Oct-06 13:33N 35°38' W 122°05'1515.1
2014-Oct-06 12:34N 35°25' W 121°58'1515.2
2014-Oct-06 11:34N 35°11' W 121°49'1515.1
2014-Oct-06 10:34N 34°57' W 121°41'1515.3
2014-Oct-06 09:34N 34°43' W 121°34'1615.7
2014-Oct-06 08:33N 34°29' W 121°25'1515.0
2014-Oct-06 07:34N 34°16' W 121°17'1514.7
2014-Oct-06 06:34N 34°03' W 121°10'1515.2
2014-Oct-06 05:34N 33°49' W 121°02'1514.7
2014-Oct-06 04:34N 33°40' W 120°48'1515.3
2014-Oct-06 03:34N 33°34' W 120°31'1515.3
2014-Oct-06 02:34N 33°29' W 120°14'1413.7
2014-Oct-06 01:33N 33°27' W 119°57'1110.9
2014-Oct-06 00:33N 33°31' W 119°45'1210.6
2014-Oct-05 23:24N 33°34' W 119°31'911.0
2014-Oct-05 22:33N 33°37' W 119°20'1110.9
2014-Oct-05 21:33N 33°40' W 119°08'1110.8
2014-Oct-05 20:33N 33°40' W 118°55'1110.9
2014-Oct-05 19:33N 33°40' W 118°42'1111.0
2014-Oct-05 18:33N 33°39' W 118°28'1111.0
2014-Oct-05 17:33N 33°38' W 118°15'7 6.8
2014-Oct-05 16:33N 33°44' W 118°13'2 1.9
2014-Oct-05 15:32N 33°46' W 118°14'0 0.0
2014-Oct-05 14:32N 33°46' W 118°14'0 0.0
2014-Oct-05 13:32N 33°46' W 118°14'0 0.0
2014-Oct-05 12:32N 33°46' W 118°14'0 0.0
2014-Oct-05 11:32N 33°46' W 118°14'0 0.0
2014-Oct-05 10:32N 33°46' W 118°14'0 0.0
2014-Oct-05 09:32N 33°46' W 118°14'0 0.0
2014-Oct-05 08:32N 33°46' W 118°14'0 0.0
2014-Oct-05 07:32N 33°46' W 118°14'0 0.0
2014-Oct-05 06:32N 33°46' W 118°14'0 0.0
2014-Oct-05 05:32N 33°46' W 118°14'0 0.0
2014-Oct-05 04:32N 33°46' W 118°14'0 0.0
2014-Oct-05 03:32N 33°46' W 118°14'0 0.0
2014-Oct-05 02:32N 33°46' W 118°14'0 0.0
2014-Oct-05 01:32N 33°46' W 118°14'0 0.0
2014-Oct-05 00:32N 33°46' W 118°14'0 0.0
2014-Oct-04 23:32N 33°46' W 118°14'0 0.0
2014-Oct-04 22:33N 33°46' W 118°14'0 0.0
2014-Oct-04 21:32N 33°46' W 118°14'0 0.0
2014-Oct-04 20:32N 33°46' W 118°14'0 0.0
2014-Oct-04 19:32N 33°46' W 118°14'0 0.0
2014-Oct-04 18:32N 33°46' W 118°14'0 0.0
2014-Oct-04 17:32N 33°46' W 118°14'0 0.0
2014-Oct-04 16:26N 33°46' W 118°14'0 0.0
2014-Oct-04 15:32N 33°46' W 118°14'0 0.0
2014-Oct-04 14:32N 33°46' W 118°14'0 0.0
2014-Oct-04 13:32N 33°46' W 118°14'2 1.6
2014-Oct-04 12:33N 33°45' W 118°13'4 3.6
2014-Oct-04 11:33N 33°43' W 118°09'0 0.1
2014-Oct-04 10:33N 33°43' W 118°09'0 0.1
2014-Oct-04 09:33N 33°43' W 118°09'0 0.1
2014-Oct-04 08:33N 33°43' W 118°09'0 0.1
2014-Oct-04 07:33N 33°43' W 118°09'0 0.2
2014-Oct-04 06:31N 33°43' W 118°09'0 0.0
2014-Oct-04 05:33N 33°43' W 118°09'0 0.0
2014-Oct-04 04:24N 33°43' W 118°09'0 0.0
2014-Oct-04 02:31N 33°43' W 118°09'0 0.0
2014-Oct-04 01:30N 33°43' W 118°09'0 0.0
2014-Oct-04 00:19N 33°43' W 118°09'0 0.0
2014-Oct-03 23:27N 33°43' W 118°09'1 0.1
2014-Oct-03 18:32N 33°42' W 118°09'8 7.8
2014-Oct-03 17:33N 33°36' W 118°15'1010.0
2014-Oct-03 16:33N 33°38' W 118°27'1010.3
2014-Oct-03 15:33N 33°44' W 118°37'1110.1
2014-Oct-03 14:30N 33°49' W 118°48'1010.4
2014-Oct-03 13:33N 33°54' W 118°59'1010.1
2014-Oct-03 12:33N 33°59' W 119°09'8 8.3
2014-Oct-03 11:33N 34°06' W 119°15'4 3.8
2014-Oct-03 10:33N 34°09' W 119°12'0 0.0
2014-Oct-03 09:33N 34°09' W 119°12'0 0.0
2014-Oct-03 08:33N 34°09' W 119°12'0 0.0
2014-Oct-03 07:33N 34°09' W 119°12'0 0.0
2014-Oct-03 06:33N 34°09' W 119°12'0 0.0
2014-Oct-03 05:33N 34°09' W 119°12'0 0.0
2014-Oct-03 04:33N 34°09' W 119°12'0 0.0
2014-Oct-03 03:33N 34°09' W 119°12'0 0.0
2014-Oct-03 02:33N 34°09' W 119°12'0 0.0
2014-Oct-03 01:27N 34°09' W 119°12'0 0.0
2014-Oct-02 23:06N 34°09' W 119°12'0 0.0
2014-Oct-02 22:33N 34°09' W 119°12'0 0.0
2014-Oct-02 21:33N 34°09' W 119°12'0 0.0
2014-Oct-02 20:33N 34°09' W 119°12'0 0.0
2014-Oct-02 19:12N 34°09' W 119°12'0 0.0
2014-Oct-02 18:30N 34°09' W 119°12'0 0.0
2014-Oct-02 16:33N 34°09' W 119°12'0 0.0
2014-Oct-02 15:33N 34°09' W 119°12'0 0.0
2014-Oct-02 14:33N 34°09' W 119°12'0 0.0
2014-Oct-02 13:33N 34°09' W 119°12'0 0.0
2014-Oct-02 12:33N 34°09' W 119°12'0 0.0
2014-Oct-02 11:33N 34°09' W 119°12'0 0.0
2014-Oct-02 10:30N 34°09' W 119°12'0 0.0
2014-Oct-02 09:27N 34°09' W 119°12'0 0.0
2014-Oct-02 08:30N 34°09' W 119°12'0 0.0
2014-Oct-02 07:33N 34°09' W 119°12'0 0.0
2014-Oct-02 06:33N 34°09' W 119°12'0 0.0
2014-Oct-02 05:33N 34°09' W 119°12'0 0.0
2014-Oct-02 02:30N 34°09' W 119°12'0 0.0
2014-Oct-02 01:33N 34°09' W 119°12'0 0.0
2014-Oct-02 00:33N 34°09' W 119°12'0 0.0
2014-Oct-01 23:33N 34°09' W 119°12'2 0.2
2014-Oct-01 13:32N 34°08' W 119°14'4 3.8
2014-Oct-01 12:33N 34°04' W 119°14'1611.1
2014-Oct-01 11:08N 33°56' W 118°58'611.2
2014-Oct-01 10:33N 33°53' W 118°51'1211.3
2014-Oct-01 09:32N 33°47' W 118°39'1111.4
2014-Oct-01 08:34N 33°42' W 118°28'1111.2
2014-Oct-01 07:32N 33°37' W 118°15'1010.0
2014-Oct-01 06:34N 33°30' W 118°07'1111.2
2014-Oct-01 05:33N 33°19' W 118°03'1111.3
2014-Oct-01 04:34N 33°09' W 117°58'1111.1
2014-Oct-01 03:34N 32°58' W 117°54'1111.4
2014-Oct-01 02:33N 32°48' W 117°49'9 8.8
2014-Oct-01 01:33N 32°39' W 117°45'9 9.3
2014-Oct-01 00:33N 32°31' W 117°42'1515.3
2014-Sep-30 23:33N 32°16' W 117°36'1515.1
2014-Sep-30 22:33N 32°02' W 117°30'1514.8
2014-Sep-30 21:33N 31°48' W 117°24'1914.9
2014-Sep-30 20:18N 31°30' W 117°16'1315.2
2014-Sep-30 19:28N 31°18' W 117°11'  
Track history (hours):
 
Tides and Currents Weather Stations Pressure Air Temp Water Temp Dewpoint Dewpoint Depression Visibility Wind Speed Wind Dir Waves Ship Positions

Tasman Crusader

Last reported at 2014-Oct-09 01:33 UTC. Time now 2014-Oct-23 11:46 UTC.
Position N 29°46' W 117°28'.
Warning: this ship's position is 14 days out of date.

Length 186 m; draft 10.2 m.

Type: Cargo ship. MMSI: 636091434.

Date/timePositionNaut miles runAvg speedWind from/ knotsBaromVisibWave heightAir tempDewpointWater temp
2014-Oct-09 01:33N 29°46' W 117°28'2215.0
2014-Oct-09 00:06N 30°04' W 117°43'1015.4
2014-Oct-08 23:25N 30°12' W 117°51'1615.5
2014-Oct-08 22:23N 30°25' W 118°02'1315.3
2014-Oct-08 21:33N 30°35' W 118°10'1515.1
2014-Oct-08 20:34N 30°47' W 118°21'1515.0
2014-Oct-08 19:33N 30°59' W 118°32'1615.5
2014-Oct-08 18:33N 31°11' W 118°43'1615.4
2014-Oct-08 17:29N 31°24' W 118°54'1415.3
2014-Oct-08 16:33N 31°36' W 119°04'1515.3
2014-Oct-08 15:34N 31°48' W 119°15'1615.6
2014-Oct-08 14:33N 32°01' W 119°25'1515.4
2014-Oct-08 13:34N 32°13' W 119°37'1515.2
2014-Oct-08 12:33N 32°25' W 119°48'1515.3
2014-Oct-08 11:33N 32°37' W 119°59'1515.2
2014-Oct-08 10:33N 32°49' W 120°10'1515.1
2014-Oct-08 09:34N 33°01' W 120°21'1515.2
2014-Oct-08 08:33N 33°13' W 120°32'1515.5
2014-Oct-08 07:33N 33°26' W 120°43'1515.0
2014-Oct-08 06:34N 33°38' W 120°53'1514.8
2014-Oct-08 05:33N 33°50' W 121°03'1515.1
2014-Oct-08 04:33N 34°04' W 121°11'1515.1
2014-Oct-08 03:33N 34°18' W 121°19'1515.3
2014-Oct-08 02:33N 34°31' W 121°27'1514.8
2014-Oct-08 01:34N 34°45' W 121°35'1515.2
2014-Oct-08 00:34N 34°58' W 121°42'1515.1
2014-Oct-07 23:33N 35°12' W 121°50'1515.2
2014-Oct-07 22:33N 35°26' W 121°58'1515.1
2014-Oct-07 21:33N 35°40' W 122°06'1515.2
2014-Oct-07 20:33N 35°53' W 122°14'1515.2
2014-Oct-07 19:33N 36°07' W 122°22'1515.0
2014-Oct-07 18:33N 36°21' W 122°30'1514.7
2014-Oct-07 17:33N 36°34' W 122°38'1515.1
2014-Oct-07 16:33N 36°48' W 122°46'1515.5
2014-Oct-07 15:34N 37°02' W 122°55'1515.1
2014-Oct-07 14:34N 37°15' W 123°02'1110.8
2014-Oct-07 13:33N 37°26' W 123°04'9 9.3
2014-Oct-07 12:33N 37°35' W 123°01'1010.4
2014-Oct-07 11:33N 37°41' W 122°50'10 9.9
2014-Oct-07 10:34N 37°46' W 122°40'1312.9
2014-Oct-07 09:34N 37°50' W 122°24'4 3.9
2014-Oct-07 08:32N 37°49' W 122°19'0 0.0
2014-Oct-07 07:32N 37°49' W 122°19'0 0.0
2014-Oct-07 06:32N 37°49' W 122°19'0 0.0
2014-Oct-07 05:32N 37°49' W 122°19'0 0.0
2014-Oct-07 04:32N 37°49' W 122°19'0 0.0
2014-Oct-07 03:32N 37°49' W 122°19'0 0.0
2014-Oct-07 02:32N 37°49' W 122°19'0 0.0
2014-Oct-07 01:32N 37°49' W 122°19'1 0.8
2014-Oct-07 00:33N 37°49' W 122°20'1110.6
2014-Oct-06 23:34N 37°47' W 122°33'1211.9
2014-Oct-06 22:34N 37°41' W 122°46'1515.0
2014-Oct-06 21:34N 37°32' W 123°02'1515.0
2014-Oct-06 20:34N 37°17' W 123°03'1515.4
2014-Oct-06 19:34N 37°03' W 122°55'1515.4
2014-Oct-06 18:34N 36°50' W 122°47'1615.7
2014-Oct-06 17:34N 36°35' W 122°39'1615.8
2014-Oct-06 16:33N 36°21' W 122°30'1615.8
2014-Oct-06 15:33N 36°07' W 122°22'1616.0
2014-Oct-06 14:34N 35°52' W 122°14'1515.3
2014-Oct-06 13:33N 35°38' W 122°05'1515.1
2014-Oct-06 12:34N 35°25' W 121°58'1515.2
2014-Oct-06 11:34N 35°11' W 121°49'1515.1
2014-Oct-06 10:34N 34°57' W 121°41'1515.3
2014-Oct-06 09:34N 34°43' W 121°34'1615.7
2014-Oct-06 08:33N 34°29' W 121°25'1515.0
2014-Oct-06 07:34N 34°16' W 121°17'1514.7
2014-Oct-06 06:34N 34°03' W 121°10'1515.2
2014-Oct-06 05:34N 33°49' W 121°02'1514.7
2014-Oct-06 04:34N 33°40' W 120°48'1515.3
2014-Oct-06 03:34N 33°34' W 120°31'1515.3
2014-Oct-06 02:34N 33°29' W 120°14'1413.7
2014-Oct-06 01:33N 33°27' W 119°57'1110.9
2014-Oct-06 00:33N 33°31' W 119°45'1210.6
2014-Oct-05 23:24N 33°34' W 119°31'911.0
2014-Oct-05 22:33N 33°37' W 119°20'1110.9
2014-Oct-05 21:33N 33°40' W 119°08'1110.8
2014-Oct-05 20:33N 33°40' W 118°55'1110.9
2014-Oct-05 19:33N 33°40' W 118°42'1111.0
2014-Oct-05 18:33N 33°39' W 118°28'1111.0
2014-Oct-05 17:33N 33°38' W 118°15'7 6.8
2014-Oct-05 16:33N 33°44' W 118°13'2 1.9
2014-Oct-05 15:32N 33°46' W 118°14'0 0.0
2014-Oct-05 14:32N 33°46' W 118°14'0 0.0
2014-Oct-05 13:32N 33°46' W 118°14'0 0.0
2014-Oct-05 12:32N 33°46' W 118°14'0 0.0
2014-Oct-05 11:32N 33°46' W 118°14'0 0.0
2014-Oct-05 10:32N 33°46' W 118°14'0 0.0
2014-Oct-05 09:32N 33°46' W 118°14'0 0.0
2014-Oct-05 08:32N 33°46' W 118°14'0 0.0
2014-Oct-05 07:32N 33°46' W 118°14'0 0.0
2014-Oct-05 06:32N 33°46' W 118°14'0 0.0
2014-Oct-05 05:32N 33°46' W 118°14'0 0.0
2014-Oct-05 04:32N 33°46' W 118°14'0 0.0
2014-Oct-05 03:32N 33°46' W 118°14'0 0.0
2014-Oct-05 02:32N 33°46' W 118°14'0 0.0
2014-Oct-05 01:32N 33°46' W 118°14'0 0.0
2014-Oct-05 00:32N 33°46' W 118°14'0 0.0
2014-Oct-04 23:32N 33°46' W 118°14'0 0.0
2014-Oct-04 22:33N 33°46' W 118°14'0 0.0
2014-Oct-04 21:32N 33°46' W 118°14'0 0.0
2014-Oct-04 20:32N 33°46' W 118°14'0 0.0
2014-Oct-04 19:32N 33°46' W 118°14'0 0.0
2014-Oct-04 18:32N 33°46' W 118°14'0 0.0
2014-Oct-04 17:32N 33°46' W 118°14'0 0.0
2014-Oct-04 16:26N 33°46' W 118°14'0 0.0
2014-Oct-04 15:32N 33°46' W 118°14'0 0.0
2014-Oct-04 14:32N 33°46' W 118°14'0 0.0
2014-Oct-04 13:32N 33°46' W 118°14'2 1.6
2014-Oct-04 12:33N 33°45' W 118°13'4 3.6
2014-Oct-04 11:33N 33°43' W 118°09'0 0.1
2014-Oct-04 10:33N 33°43' W 118°09'0 0.1
2014-Oct-04 09:33N 33°43' W 118°09'0 0.1
2014-Oct-04 08:33N 33°43' W 118°09'0 0.1
2014-Oct-04 07:33N 33°43' W 118°09'0 0.2
2014-Oct-04 06:31N 33°43' W 118°09'0 0.0
2014-Oct-04 05:33N 33°43' W 118°09'0 0.0
2014-Oct-04 04:24N 33°43' W 118°09'0 0.0
2014-Oct-04 02:31N 33°43' W 118°09'0 0.0
2014-Oct-04 01:30N 33°43' W 118°09'0 0.0
2014-Oct-04 00:19N 33°43' W 118°09'0 0.0
2014-Oct-03 23:27N 33°43' W 118°09'1 0.1
2014-Oct-03 18:32N 33°42' W 118°09'8 7.8
2014-Oct-03 17:33N 33°36' W 118°15'1010.0
2014-Oct-03 16:33N 33°38' W 118°27'1010.3
2014-Oct-03 15:33N 33°44' W 118°37'1110.1
2014-Oct-03 14:30N 33°49' W 118°48'1010.4
2014-Oct-03 13:33N 33°54' W 118°59'1010.1
2014-Oct-03 12:33N 33°59' W 119°09'8 8.3
2014-Oct-03 11:33N 34°06' W 119°15'4 3.8
2014-Oct-03 10:33N 34°09' W 119°12'0 0.0
2014-Oct-03 09:33N 34°09' W 119°12'0 0.0
2014-Oct-03 08:33N 34°09' W 119°12'0 0.0
2014-Oct-03 07:33N 34°09' W 119°12'0 0.0
2014-Oct-03 06:33N 34°09' W 119°12'0 0.0
2014-Oct-03 05:33N 34°09' W 119°12'0 0.0
2014-Oct-03 04:33N 34°09' W 119°12'0 0.0
2014-Oct-03 03:33N 34°09' W 119°12'0 0.0
2014-Oct-03 02:33N 34°09' W 119°12'0 0.0
2014-Oct-03 01:27N 34°09' W 119°12'0 0.0
2014-Oct-02 23:06N 34°09' W 119°12'0 0.0
2014-Oct-02 22:33N 34°09' W 119°12'0 0.0
2014-Oct-02 21:33N 34°09' W 119°12'0 0.0
2014-Oct-02 20:33N 34°09' W 119°12'0 0.0
2014-Oct-02 19:12N 34°09' W 119°12'0 0.0
2014-Oct-02 18:30N 34°09' W 119°12'0 0.0
2014-Oct-02 16:33N 34°09' W 119°12'0 0.0
2014-Oct-02 15:33N 34°09' W 119°12'0 0.0
2014-Oct-02 14:33N 34°09' W 119°12'0 0.0
2014-Oct-02 13:33N 34°09' W 119°12'0 0.0
2014-Oct-02 12:33N 34°09' W 119°12'0 0.0
2014-Oct-02 11:33N 34°09' W 119°12'0 0.0
2014-Oct-02 10:30N 34°09' W 119°12'0 0.0
2014-Oct-02 09:27N 34°09' W 119°12'0 0.0
2014-Oct-02 08:30N 34°09' W 119°12'0 0.0
2014-Oct-02 07:33N 34°09' W 119°12'0 0.0
2014-Oct-02 06:33N 34°09' W 119°12'0 0.0
2014-Oct-02 05:33N 34°09' W 119°12'0 0.0
2014-Oct-02 02:30N 34°09' W 119°12'0 0.0
2014-Oct-02 01:33N 34°09' W 119°12'0 0.0
2014-Oct-02 00:33N 34°09' W 119°12'0 0.0
2014-Oct-01 23:33N 34°09' W 119°12'2 0.2
2014-Oct-01 13:32N 34°08' W 119°14'4 3.8
2014-Oct-01 12:33N 34°04' W 119°14'1611.1
2014-Oct-01 11:08N 33°56' W 118°58'611.2
2014-Oct-01 10:33N 33°53' W 118°51'1211.3
2014-Oct-01 09:32N 33°47' W 118°39'1111.4
2014-Oct-01 08:34N 33°42' W 118°28'1111.2
2014-Oct-01 07:32N 33°37' W 118°15'1010.0
2014-Oct-01 06:34N 33°30' W 118°07'1111.2
2014-Oct-01 05:33N 33°19' W 118°03'1111.3
2014-Oct-01 04:34N 33°09' W 117°58'1111.1
2014-Oct-01 03:34N 32°58' W 117°54'1111.4
2014-Oct-01 02:33N 32°48' W 117°49'9 8.8
2014-Oct-01 01:33N 32°39' W 117°45'9 9.3
2014-Oct-01 00:33N 32°31' W 117°42'1515.3
2014-Sep-30 23:33N 32°16' W 117°36'1515.1
2014-Sep-30 22:33N 32°02' W 117°30'1514.8
2014-Sep-30 21:33N 31°48' W 117°24'1914.9
2014-Sep-30 20:18N 31°30' W 117°16'1315.2
2014-Sep-30 19:28N 31°18' W 117°11'  

Dump ship's entire track history